Time;durP1;ratioP1;P1;durP2;ratioP2;P2;SDS_P1;SDS_P2;PMS_P1;PMS_P2;Temp;Humidity;BMP_temperature;BMP_pressure;BME280_temperature;BME280_humidity;BME280_pressure;Samples;Min_cycle;Max_cycle;Signal;HPM_P1;HPM_P2
2023/06/30 00:00:16;;;;;;;13.80;9.13;;;;;;;-141.97;71.18;47624.78;5013519;28;20175;-91
2023/06/30 00:02:42;;;;;;;11.47;8.23;;;;;;;-141.97;71.36;47411.44;5014299;28;20257;-91
2023/06/30 00:05:08;;;;;;;12.30;8.17;;;;;;;-141.97;71.27;47617.09;5015864;28;20199;-90
2023/06/30 00:07:34;;;;;;;11.93;8.33;;;;;;;-141.97;71.10;47334.56;5036177;28;20193;-89
2023/06/30 00:09:59;;;;;;;10.73;8.13;;;;;;;-141.97;71.48;47638.25;5036043;28;20167;-89
2023/06/30 00:12:25;;;;;;;10.23;8.17;;;;;;;-141.97;71.50;47365.31;5019106;28;20167;-91
2023/06/30 00:14:50;;;;;;;10.60;8.20;;;;;;;-141.97;71.14;47630.56;5016051;28;20175;-91
2023/06/30 00:17:16;;;;;;;10.23;8.00;;;;;;;-141.97;70.99;47603.66;5025222;28;20201;-90
2023/06/30 00:19:41;;;;;;;12.47;8.37;;;;;;;-141.97;71.18;47634.41;5024806;28;20222;-91
2023/06/30 00:22:07;;;;;;;10.17;8.30;;;;;;;-141.97;71.85;47415.28;5016014;28;20198;-90
2023/06/30 00:24:33;;;;;;;12.17;8.20;;;;;;;-141.97;72.35;47530.59;5013814;28;20181;-90
2023/06/30 00:26:59;;;;;;;10.03;8.43;;;;;;;-141.97;72.99;47540.22;5014121;28;20576;-90
2023/06/30 00:29:24;;;;;;;10.83;8.77;;;;;;;-141.97;73.09;47469.09;5019631;28;20237;-90
2023/06/30 00:31:50;;;;;;;11.97;8.27;;;;;;;-141.97;73.27;47392.22;5016484;28;20179;-90
2023/06/30 00:34:15;;;;;;;10.77;8.77;;;;;;;-141.97;73.45;47561.38;4996536;28;20177;-91
2023/06/30 00:36:40;;;;;;;11.00;8.73;;;;;;;-141.97;73.46;47359.56;4996306;28;20265;-90
2023/06/30 00:39:06;;;;;;;12.83;8.57;;;;;;;-141.97;72.79;47667.06;5012739;28;20233;-91
2023/06/30 00:41:31;;;;;;;10.47;8.30;;;;;;;-141.97;72.61;47442.19;5013419;28;20170;-90
2023/06/30 00:43:58;;;;;;;12.13;8.83;;;;;;;-141.97;72.41;47424.91;5012754;28;20230;-89
2023/06/30 00:46:23;;;;;;;10.17;8.50;;;;;;;-141.97;72.79;47536.38;5012380;28;20169;-90
2023/06/30 00:48:49;;;;;;;11.77;8.57;;;;;;;-141.97;73.44;47649.78;5012299;28;20249;-90
2023/06/30 00:51:14;;;;;;;12.27;8.60;;;;;;;-141.97;73.28;47319.19;5013214;28;20578;-89
2023/06/30 00:53:41;;;;;;;10.93;8.37;;;;;;;-141.97;73.29;47424.91;5012417;28;20631;-89
2023/06/30 00:56:06;;;;;;;11.80;8.63;;;;;;;-141.97;73.37;47499.84;5015518;28;20202;-91
2023/06/30 00:58:32;;;;;;;12.67;8.90;;;;;;;-141.97;73.25;47422.97;5015722;28;20167;-90
2023/06/30 01:01:13;;;;;;;10.70;8.50;;;;;;;-141.97;73.48;47407.59;5016735;28;20255;-91
2023/06/30 01:03:46;;;;;;;11.70;8.83;;;;;;;-141.97;74.06;47369.16;5016041;28;20645;-91
2023/06/30 01:06:32;;;;;;;12.13;8.87;;;;;;;-141.97;74.14;47453.72;5015984;28;20175;-89
2023/06/30 01:09:00;;;;;;;13.97;8.80;;;;;;;-141.97;74.34;47519.06;5015568;28;20171;-90
2023/06/30 01:11:26;;;;;;;13.60;9.20;;;;;;;-141.97;74.69;47588.28;5014982;28;20677;-91
2023/06/30 01:13:55;;;;;;;14.13;9.33;;;;;;;-141.97;74.61;47572.91;5016072;28;20171;-92
2023/06/30 01:16:23;;;;;;;13.37;9.43;;;;;;;-141.97;75.08;47574.81;5015789;28;20213;-91
2023/06/30 01:18:52;;;;;;;12.30;9.37;;;;;;;-141.97;75.65;47649.78;5015798;28;20171;-90
2023/06/30 01:21:21;;;;;;;12.30;9.17;;;;;;;-141.97;75.65;47711.28;5017226;28;20194;-91
2023/06/30 01:24:02;;;;;;;14.43;9.50;;;;;;;-141.97;75.56;47555.59;5015861;28;20270;-91
2023/06/30 01:26:28;;;;;;;13.47;9.40;;;;;;;-141.97;75.46;47553.69;5016630;28;20162;-90
2023/06/30 01:28:54;;;;;;;11.20;9.23;;;;;;;-141.97;75.61;47595.97;5015167;28;20550;-91
2023/06/30 01:31:20;;;;;;;13.07;9.33;;;;;;;-141.97;75.73;47449.88;5016934;28;20241;-91
2023/06/30 01:33:46;;;;;;;13.80;9.60;;;;;;;-141.97;75.78;47563.28;5015154;28;20170;-90
2023/06/30 01:36:12;;;;;;;11.53;9.90;;;;;;;-141.97;76.80;47444.13;5016031;28;20195;-90
2023/06/30 01:38:37;;;;;;;12.43;9.37;;;;;;;-141.97;76.55;47636.31;5014834;28;20573;-90
2023/06/30 01:41:06;;;;;;;13.90;9.37;;;;;;;-141.97;76.98;47557.53;5015906;28;20171;-89
2023/06/30 01:43:33;;;;;;;13.50;9.97;;;;;;;-141.97;77.34;47505.63;4999239;28;20223;-89
2023/06/30 01:45:59;;;;;;;12.27;9.80;;;;;;;-141.97;76.99;47549.84;4995824;28;20180;-90
2023/06/30 01:48:25;;;;;;;14.80;9.87;;;;;;;-141.97;77.21;47530.59;4979196;28;20185;-90
2023/06/30 01:50:50;;;;;;;15.57;9.80;;;;;;;-141.97;76.95;47694.00;4995664;28;20176;-89
2023/06/30 01:53:16;;;;;;;14.27;9.60;;;;;;;-141.97;76.96;47346.09;4979801;28;20175;-91
2023/06/30 01:55:48;;;;;;;14.23;9.70;;;;;;;-141.97;77.12;47530.59;4979326;28;20203;-89
2023/06/30 01:58:14;;;;;;;12.90;9.60;;;;;;;-141.97;77.80;47672.84;4997036;28;20637;-90
2023/06/30 02:00:39;;;;;;;14.43;10.30;;;;;;;-141.97;77.47;47374.94;4995977;28;20211;-90
2023/06/30 02:03:05;;;;;;;16.67;10.07;;;;;;;-141.97;77.06;47369.16;4995927;28;20187;-89
2023/06/30 02:05:30;;;;;;;13.87;10.30;;;;;;;-141.97;77.22;47349.94;4996322;28;20155;-90
2023/06/30 02:07:56;;;;;;;14.67;10.40;;;;;;;-141.97;76.57;47603.66;4996445;28;20179;-92
2023/06/30 02:10:21;;;;;;;13.70;10.23;;;;;;;-141.97;76.34;47584.44;4980491;28;20559;-90
2023/06/30 02:12:47;;;;;;;12.83;9.53;;;;;;;-141.97;75.93;47311.50;4995828;28;20603;-90
2023/06/30 02:15:12;;;;;;;12.93;9.73;;;;;;;-141.97;75.84;47411.44;4996665;28;20577;-90
2023/06/30 02:17:40;;;;;;;13.57;9.77;;;;;;;-141.97;75.39;47665.16;4996703;28;20195;-90
2023/06/30 02:20:06;;;;;;;13.40;10.30;;;;;;;-141.97;74.84;47534.44;4996966;28;20164;-90
2023/06/30 02:22:32;;;;;;;14.27;9.70;;;;;;;-141.97;73.96;47522.91;4995742;28;20168;-90
2023/06/30 02:24:58;;;;;;;14.43;10.20;;;;;;;-141.97;73.96;47561.38;4996657;28;20168;-91
2023/06/30 02:27:24;;;;;;;11.83;9.97;;;;;;;-141.97;74.13;47645.94;4979842;28;20571;-91
2023/06/30 02:29:50;;;;;;;13.73;10.10;;;;;;;-141.97;73.41;47349.94;5002585;28;20183;-90
2023/06/30 02:32:15;;;;;;;14.03;10.23;;;;;;;-141.97;74.26;47446.03;5001679;28;20181;-90
2023/06/30 02:34:41;;;;;;;13.30;10.43;;;;;;;-141.97;74.34;47634.41;5000149;28;20163;-90
2023/06/30 02:37:06;;;;;;;14.20;10.27;;;;;;;-141.97;74.24;47501.78;4999557;28;20210;-90
2023/06/30 02:39:32;;;;;;;13.83;10.50;;;;;;;-141.97;74.53;47642.09;4995825;28;20593;-90
2023/06/30 02:41:57;;;;;;;15.80;10.80;;;;;;;-141.97;75.36;47526.75;4994307;28;20175;-89
2023/06/30 02:44:23;;;;;;;15.07;11.17;;;;;;;-141.97;76.34;47576.75;4994199;28;20265;-90
2023/06/30 02:46:48;;;;;;;13.97;10.60;;;;;;;-141.97;76.75;47453.72;4978123;28;20179;-90
2023/06/30 02:49:13;;;;;;;14.20;11.10;;;;;;;-141.97;76.52;47555.59;4996264;28;20179;-90
2023/06/30 02:51:39;;;;;;;18.00;11.87;;;;;;;-141.97;75.89;47455.66;4994470;28;20180;-91
2023/06/30 02:54:04;;;;;;;17.57;11.67;;;;;;;-141.97;74.89;47686.31;4994530;28;20222;-90
2023/06/30 02:56:30;;;;;;;14.90;10.83;;;;;;;-141.97;74.98;47373.00;4993726;28;20210;-91
2023/06/30 02:58:55;;;;;;;17.03;11.67;;;;;;;-141.97;74.52;47653.63;4994737;28;20217;-90
2023/06/30 03:01:21;;;;;;;16.10;11.03;;;;;;;-141.97;75.26;47707.44;4996701;28;20159;-91
2023/06/30 03:03:50;;;;;;;17.07;11.50;;;;;;;-141.97;74.97;47499.84;4994333;28;20218;-90
2023/06/30 03:06:15;;;;;;;17.93;11.33;;;;;;;-141.97;74.48;47503.69;4993151;28;20226;-91
2023/06/30 03:08:41;;;;;;;15.17;10.93;;;;;;;-141.97;74.45;47480.63;4977963;28;20262;-91
2023/06/30 03:11:07;;;;;;;15.87;10.87;;;;;;;-141.97;74.29;47636.31;4995740;28;20210;-91
2023/06/30 03:13:32;;;;;;;14.20;10.73;;;;;;;-141.97;74.77;47396.06;4978688;28;20261;-90
2023/06/30 03:15:58;;;;;;;13.77;10.73;;;;;;;-141.97;74.00;47469.09;4996218;28;20199;-89
2023/06/30 03:18:23;;;;;;;15.37;11.37;;;;;;;-141.97;74.09;47438.34;4977702;28;20182;-90
2023/06/30 03:20:49;;;;;;;15.40;11.53;;;;;;;-141.97;74.34;47572.91;4993754;28;20221;-90
2023/06/30 03:23:15;;;;;;;14.60;11.53;;;;;;;-141.97;74.97;47453.72;4978122;28;20659;-89
2023/06/30 03:25:40;;;;;;;16.37;11.03;;;;;;;-141.97;75.07;47522.91;4984366;28;20183;-90
2023/06/30 03:28:06;;;;;;;18.70;11.60;;;;;;;-141.97;75.15;47365.31;4997971;28;20176;-90
2023/06/30 03:30:31;;;;;;;15.53;11.90;;;;;;;-141.97;74.49;47411.44;5006307;28;20193;-89
2023/06/30 03:32:57;;;;;;;17.80;12.10;;;;;;;-141.97;73.91;47349.94;5014454;28;20579;-90
2023/06/30 03:35:22;;;;;;;16.97;11.47;;;;;;;-141.97;73.84;47647.84;5014552;28;20177;-90
2023/06/30 03:37:48;;;;;;;16.00;11.57;;;;;;;-141.97;73.82;47386.47;5013933;28;20225;-90
2023/06/30 03:40:13;;;;;;;17.87;11.97;;;;;;;-141.97;73.76;47695.91;5013691;28;20237;-90
2023/06/30 03:42:39;;;;;;;18.03;12.00;;;;;;;-141.97;73.50;47382.63;5013859;28;20222;-90
2023/06/30 03:45:05;;;;;;;17.67;11.97;;;;;;;-141.97;72.93;47576.75;5013484;28;20236;-90
2023/06/30 03:47:30;;;;;;;20.33;12.13;;;;;;;-141.97;72.16;47597.88;5013514;28;20186;-91
2023/06/30 03:49:56;;;;;;;18.83;12.70;;;;;;;-141.97;71.35;47634.41;5013568;28;20174;-90
2023/06/30 03:52:21;;;;;;;18.70;12.13;;;;;;;-141.97;70.73;47557.53;5012960;28;20174;-90
2023/06/30 03:54:46;;;;;;;19.07;12.07;;;;;;;-141.97;70.76;47713.22;5012781;28;20186;-91
2023/06/30 03:57:12;;;;;;;16.47;11.70;;;;;;;-141.97;71.80;47503.69;5015039;28;20602;-90
2023/06/30 03:59:38;;;;;;;18.20;12.60;;;;;;;-141.97;71.85;47695.91;5013842;28;20689;-91
2023/06/30 04:02:04;;;;;;;15.17;11.77;;;;;;;-141.97;71.09;47692.06;4997421;28;20171;-91
2023/06/30 04:04:29;;;;;;;18.73;11.90;;;;;;;-141.97;69.97;47405.69;5016151;28;20171;-89
2023/06/30 04:06:55;;;;;;;20.77;12.90;;;;;;;-141.97;69.66;47413.38;5018977;28;20178;-90
2023/06/30 04:09:21;;;;;;;17.17;12.70;;;;;;;-141.97;69.34;47695.91;5017998;28;20179;-91
2023/06/30 04:11:48;;;;;;;19.40;12.87;;;;;;;-141.97;69.78;47369.16;5017124;28;20230;-90
2023/06/30 04:14:13;;;;;;;19.27;14.97;;;;;;;-141.97;70.38;47434.50;4997975;28;20171;-90
2023/06/30 04:16:39;;;;;;;32.67;22.73;;;;;;;-141.97;70.58;47355.72;5014522;28;20194;-90
2023/06/30 04:19:04;;;;;;;30.77;22.83;;;;;;;-141.97;71.24;47415.28;4995661;28;20178;-89
2023/06/30 04:21:30;;;;;;;30.40;21.27;;;;;;;-141.97;71.40;47688.22;5014408;28;20250;-90
2023/06/30 04:23:55;;;;;;;24.50;16.63;;;;;;;-141.97;70.44;47405.69;4997137;28;20254;-91
2023/06/30 04:26:21;;;;;;;25.47;19.43;;;;;;;-141.97;69.80;47599.81;5013044;28;20699;-91
2023/06/30 04:28:46;;;;;;;22.83;17.67;;;;;;;-141.97;70.19;47505.63;5014790;28;20244;-91
2023/06/30 04:31:12;;;;;;;18.73;12.20;;;;;;;-141.97;69.44;47592.13;5015232;28;20256;-91
2023/06/30 04:33:37;;;;;;;18.27;12.43;;;;;;;-141.97;67.69;47526.75;5017541;28;20181;-91
2023/06/30 04:36:03;;;;;;;15.87;12.13;;;;;;;-141.97;68.02;47380.69;5016694;28;20225;-89
2023/06/30 04:38:30;;;;;;;13.90;10.80;;;;;;;-141.97;67.70;47488.31;5017146;28;20638;-91
2023/06/30 04:40:56;;;;;;;14.87;11.50;;;;;;;-141.97;66.66;47661.31;5003276;28;20171;-90
2023/06/30 04:43:22;;;;;;;18.93;11.70;;;;;;;-141.97;67.94;47549.84;5016567;28;20598;-93
2023/06/30 04:45:47;;;;;;;18.37;12.47;;;;;;;-141.97;67.55;47634.41;5017149;28;20179;-91
2023/06/30 04:48:13;;;;;;;15.80;11.53;;;;;;;-141.97;67.60;47642.09;5000864;28;20206;-91
2023/06/30 04:50:38;;;;;;;16.93;11.63;;;;;;;-141.97;66.94;47507.53;5016687;28;20280;-91
2023/06/30 04:53:04;;;;;;;16.53;12.50;;;;;;;-141.97;66.51;47561.38;5007238;28;20166;-90
2023/06/30 04:55:29;;;;;;;15.63;11.40;;;;;;;-141.97;65.90;47496.00;5037503;28;20189;-86
2023/06/30 04:57:56;;;;;;;16.23;11.33;;;;;;;-141.97;66.09;47503.69;5033678;28;20163;-88
2023/06/30 05:00:22;;;;;;;15.77;11.60;;;;;;;-141.97;65.19;47417.22;5017253;28;20155;-88
2023/06/30 05:02:51;;;;;;;15.63;11.13;;;;;;;-141.97;63.86;47503.69;4999420;28;20278;-88
2023/06/30 05:05:16;;;;;;;15.77;10.10;;;;;;;-141.97;61.05;47661.31;5015379;28;20252;-87
2023/06/30 05:07:42;;;;;;;12.10;9.57;;;;;;;-141.97;59.68;47346.09;5015773;28;20628;-87
2023/06/30 05:10:08;;;;;;;12.77;9.57;;;;;;;-141.97;58.65;47667.06;5015077;28;20190;-87
2023/06/30 05:12:34;;;;;;;15.47;9.60;;;;;;;-141.97;57.32;47661.31;5016676;28;20526;-88
2023/06/30 05:14:59;;;;;;;11.53;9.13;;;;;;;-141.97;56.54;47371.09;5016973;28;20186;-87
2023/06/30 05:17:25;;;;;;;10.43;8.63;;;;;;;-141.97;55.32;47524.84;5015800;28;20301;-88
2023/06/30 05:19:50;;;;;;;13.67;9.33;;;;;;;-141.97;55.00;47682.47;5015084;28;20179;-88
2023/06/30 05:22:16;;;;;;;15.53;9.33;;;;;;;-141.97;54.60;47544.06;5017039;28;20167;-88
2023/06/30 05:24:41;;;;;;;11.50;8.50;;;;;;;-141.97;53.75;47434.50;5015045;28;20689;-87
2023/06/30 05:27:07;;;;;;;13.07;9.33;;;;;;;-141.97;53.58;47324.97;5016453;28;20151;-87
2023/06/30 05:29:32;;;;;;;11.67;8.70;;;;;;;-141.97;53.87;47459.50;5016441;28;20193;-87
2023/06/30 05:31:58;;;;;;;10.73;9.23;;;;;;;-141.97;53.57;47492.16;5014818;28;20554;-87
2023/06/30 05:34:23;;;;;;;14.63;9.23;;;;;;;-141.97;53.00;47388.38;5014872;28;20194;-87
2023/06/30 05:36:49;;;;;;;13.90;8.67;;;;;;;-141.97;52.05;47588.28;5014666;28;20199;-88
2023/06/30 05:39:14;;;;;;;9.70;8.70;;;;;;;-141.97;52.65;47657.47;5016305;28;20170;-88
2023/06/30 05:41:40;;;;;;;12.97;8.50;;;;;;;-141.97;51.62;47422.97;5015908;28;20573;-89
2023/06/30 05:44:09;;;;;;;9.53;8.27;;;;;;;-141.97;50.77;47384.53;5015808;28;20587;-89
2023/06/30 05:46:34;;;;;;;10.77;8.27;;;;;;;-141.97;50.09;47303.81;5015925;28;20185;-90
2023/06/30 05:49:05;;;;;;;11.63;8.13;;;;;;;-141.97;49.77;47576.75;5015333;28;20205;-88
2023/06/30 05:51:32;;;;;;;11.13;8.83;;;;;;;-141.97;48.90;47311.50;5015054;28;20627;-87
2023/06/30 05:53:57;;;;;;;11.67;9.27;;;;;;;-141.97;48.93;47426.81;5014643;28;20170;-87
2023/06/30 05:56:23;;;;;;;10.33;8.50;;;;;;;-141.97;48.48;47622.88;5014914;28;20590;-88
2023/06/30 05:58:48;;;;;;;8.70;7.60;;;;;;;-141.97;47.80;47669.00;5015683;28;20163;-87
2023/06/30 06:01:14;;;;;;;9.30;7.77;;;;;;;-141.97;47.37;47488.31;5014045;28;20175;-88
2023/06/30 06:03:39;;;;;;;12.80;7.67;;;;;;;-141.97;47.52;47515.22;5015712;28;20178;-86
2023/06/30 06:06:04;;;;;;;11.67;7.77;;;;;;;-141.97;47.06;47515.22;5015659;28;20548;-88
2023/06/30 06:08:30;;;;;;;11.67;7.57;;;;;;;-141.97;46.48;47622.88;5014676;28;20266;-88
2023/06/30 06:10:55;;;;;;;9.37;7.77;;;;;;;-141.97;47.00;47580.59;4998196;28;20182;-88
2023/06/30 06:13:37;;;;;;;9.87;7.10;;;;;;;-141.97;46.84;47482.56;5016090;28;20175;-87
2023/06/30 06:16:04;;;;;;;8.80;7.70;;;;;;;-141.97;45.64;47378.78;5015818;28;20198;-88
2023/06/30 06:18:30;;;;;;;8.37;7.57;;;;;;;-141.97;45.84;47357.63;5015691;28;20227;-88
2023/06/30 06:20:56;;;;;;;13.00;7.60;;;;;;;-141.97;45.29;47482.56;5015728;28;20679;-86
2023/06/30 06:23:22;;;;;;;8.27;7.47;;;;;;;-141.97;45.38;47688.22;5020396;28;20175;-87
2023/06/30 06:25:49;;;;;;;10.63;7.40;;;;;;;-141.97;44.75;47446.03;5015590;28;20181;-87
2023/06/30 06:28:14;;;;;;;10.00;7.57;;;;;;;-141.97;44.88;47657.47;5016529;28;20166;-87
2023/06/30 06:30:40;;;;;;;9.60;7.40;;;;;;;-141.97;44.68;47340.34;5016171;28;20171;-89
2023/06/30 06:33:05;;;;;;;8.50;7.67;;;;;;;-141.97;44.04;47647.84;5013685;28;20179;-87
2023/06/30 06:35:30;;;;;;;9.57;7.30;;;;;;;-141.97;43.96;47315.34;5015484;28;20650;-88
2023/06/30 06:37:56;;;;;;;9.70;7.30;;;;;;;-141.97;43.41;47657.47;5013758;28;20178;-89
2023/06/30 06:40:21;;;;;;;11.10;7.33;;;;;;;-141.97;42.95;47524.84;5015073;28;20671;-88
2023/06/30 06:42:47;;;;;;;10.43;7.37;;;;;;;-141.97;42.14;47521.00;4998290;28;20222;-89
2023/06/30 06:45:12;;;;;;;8.37;7.00;;;;;;;-141.97;41.49;47584.44;5014826;28;20170;-88
2023/06/30 06:48:15;;;;;;;9.10;7.10;;;;;;;-141.97;41.87;47467.19;5015334;28;20171;-87
2023/06/30 06:50:41;;;;;;;8.87;6.77;;;;;;;-141.97;41.02;47369.16;5013940;28;20213;-88
2023/06/30 06:53:07;;;;;;;21.50;12.87;;;;;;;-141.97;40.62;47567.13;5013309;28;20166;-88
2023/06/30 06:55:32;;;;;;;16.33;10.57;;;;;;;-141.97;40.46;47267.31;5014742;28;20175;-87
2023/06/30 06:57:57;;;;;;;9.47;8.00;;;;;;;-141.97;40.03;47476.78;5015081;28;20162;-89
2023/06/30 07:00:23;;;;;;;9.07;7.87;;;;;;;-141.97;40.52;47211.56;5014541;28;20175;-88
2023/06/30 07:02:48;;;;;;;8.17;7.10;;;;;;;-141.97;39.63;47284.59;5015135;28;20163;-88
2023/06/30 07:05:14;;;;;;;8.00;7.00;;;;;;;-141.97;39.57;47561.38;5014901;28;20593;-87
2023/06/30 07:07:39;;;;;;;8.43;6.43;;;;;;;-141.97;39.05;47519.06;5014572;28;20167;-88
2023/06/30 07:10:06;;;;;;;8.00;7.10;;;;;;;-141.97;38.64;47476.78;5014374;28;20175;-88
2023/06/30 07:12:31;;;;;;;7.40;6.50;;;;;;;-141.97;38.72;47480.63;5001482;28;20179;-88
2023/06/30 07:14:57;;;;;;;7.85;6.22;;;;;;;-141.97;38.32;47378.78;5019587;28;20156;-89
2023/06/30 07:17:22;;;;;;;10.40;6.90;;;;;;;-141.97;38.17;47665.16;5027676;28;20227;-90
2023/06/30 07:19:48;;;;;;;8.75;7.22;;;;;;;-141.97;38.25;47415.28;5036695;28;20189;-92
2023/06/30 07:22:14;;;;;;;8.25;7.40;;;;;;;-141.97;37.63;47503.69;5035233;28;20156;-89
2023/06/30 07:24:39;;;;;;;7.60;6.80;;;;;;;-141.97;37.68;47205.81;5020461;28;20169;-90
2023/06/30 07:27:05;;;;;;;7.75;6.95;;;;;;;-141.97;38.04;47595.97;5020290;28;20160;-90
2023/06/30 07:29:30;;;;;;;9.33;7.13;;;;;;;-141.97;38.15;47284.59;5019335;28;20207;-89
2023/06/30 07:31:56;;;;;;;15.50;11.40;;;;;;;-141.97;38.46;47547.91;5019094;28;20187;-89
2023/06/30 07:34:23;;;;;;;11.38;9.40;;;;;;;-141.97;37.26;47292.28;5002410;28;20172;-90
2023/06/30 07:36:50;;;;;;;9.00;7.50;;;;;;;-141.97;37.19;47422.97;5018033;28;20296;-89
2023/06/30 07:39:15;;;;;;;9.25;8.35;;;;;;;-141.97;37.36;47522.91;5015625;28;20634;-89
2023/06/30 07:41:41;;;;;;;7.20;6.50;;;;;;;-141.97;37.08;47299.97;5017322;28;20269;-89
2023/06/30 07:44:06;;;;;;;9.52;7.28;;;;;;;-141.97;37.61;47169.28;5018402;28;20306;-88
2023/06/30 07:46:33;;;;;;;8.30;7.43;;;;;;;-141.97;37.35;47257.69;5017878;28;20175;-88
2023/06/30 07:48:59;;;;;;;6.82;5.97;;;;;;;-141.97;36.93;47299.97;5019027;28;20169;-89
2023/06/30 07:51:25;;;;;;;7.22;6.28;;;;;;;-141.97;36.97;47265.38;5019053;28;20184;-89
2023/06/30 07:53:50;;;;;;;7.57;6.28;;;;;;;-141.97;36.79;47230.78;5018721;28;20173;-91
2023/06/30 07:56:16;;;;;;;6.40;5.80;;;;;;;-141.97;35.92;47586.34;5019412;28;20213;-88
2023/06/30 07:58:41;;;;;;;8.27;5.45;;;;;;;-141.97;35.68;47667.06;5018891;28;20287;-89
2023/06/30 08:01:07;;;;;;;9.82;6.50;;;;;;;-141.97;36.22;47574.81;5020403;28;20559;-90
2023/06/30 08:03:33;;;;;;;10.13;9.10;;;;;;;-141.97;35.91;47576.75;5019839;28;20206;-90
2023/06/30 08:05:59;;;;;;;8.35;5.90;;;;;;;-141.97;35.27;47555.59;5019664;28;20181;-90
2023/06/30 08:08:24;;;;;;;5.40;4.97;;;;;;;-141.97;34.95;47607.50;5020328;28;20488;-90
2023/06/30 08:10:50;;;;;;;5.65;5.10;;;;;;;-141.97;34.25;47294.22;5019974;28;20181;-89
2023/06/30 08:13:15;;;;;;;5.32;4.80;;;;;;;-141.97;34.28;47253.84;5017379;28;20169;-89
2023/06/30 08:15:41;;;;;;;7.13;5.15;;;;;;;-141.97;34.86;47192.34;5013625;28;20174;-89
2023/06/30 08:18:07;;;;;;;5.53;4.40;;;;;;;-141.97;34.59;47678.63;5014022;28;20678;-89
2023/06/30 08:20:32;;;;;;;5.68;4.57;;;;;;;-141.97;34.28;47217.34;5014848;28;20206;-90
2023/06/30 08:22:58;;;;;;;6.13;5.10;;;;;;;-141.97;33.96;47284.59;5014789;28;20198;-87
2023/06/30 08:25:24;;;;;;;6.95;6.30;;;;;;;-141.97;34.11;47307.66;5015042;28;20190;-90
2023/06/30 08:27:51;;;;;;;7.60;5.10;;;;;;;-141.97;33.30;47534.44;5015263;28;20162;-89
2023/06/30 08:30:16;;;;;;;5.68;5.00;;;;;;;-141.97;33.52;47434.50;4996563;28;20267;-89
2023/06/30 08:32:42;;;;;;;7.35;6.60;;;;;;;-141.97;33.50;47436.44;5016117;28;20197;-89
2023/06/30 08:35:08;;;;;;;5.20;4.65;;;;;;;-141.97;33.45;47238.47;5013986;28;20186;-88
2023/06/30 08:37:33;;;;;;;5.90;5.13;;;;;;;-141.97;34.06;47144.31;5013740;28;20216;-89
2023/06/30 08:40:00;;;;;;;5.78;5.07;;;;;;;-141.97;34.18;47405.69;5022116;28;20189;-90
2023/06/30 08:42:30;;;;;;;5.20;4.70;;;;;;;-141.97;33.61;47371.09;5016172;28;20257;-88
2023/06/30 08:44:57;;;;;;;6.18;4.90;;;;;;;-141.97;33.75;47311.50;5016862;28;20189;-89
2023/06/30 08:47:25;;;;;;;5.55;4.68;;;;;;;-141.97;33.24;47651.69;5016369;28;20269;-89
2023/06/30 08:49:55;;;;;;;5.00;4.50;;;;;;;-141.97;32.77;47205.81;5016564;28;20164;-88
2023/06/30 08:52:21;;;;;;;4.53;4.13;;;;;;;-141.97;33.46;47490.25;4998083;28;20174;-89
2023/06/30 08:54:47;;;;;;;5.57;4.38;;;;;;;-141.97;33.35;47223.09;5016632;28;20178;-89
2023/06/30 08:57:15;;;;;;;6.85;4.72;;;;;;;-141.97;32.86;47392.22;5021133;28;20199;-89
2023/06/30 08:59:44;;;;;;;5.72;4.30;;;;;;;-141.97;32.91;47570.97;5025216;28;20168;-89
2023/06/30 09:02:11;;;;;;;5.60;4.30;;;;;;;-141.97;32.51;47357.63;5001305;28;20178;-89
2023/06/30 09:04:38;;;;;;;4.30;3.90;;;;;;;-141.97;32.39;47338.41;5017346;28;20204;-89
2023/06/30 09:07:06;;;;;;;5.60;4.20;;;;;;;-141.97;32.28;47211.56;5019586;28;20607;-89
2023/06/30 09:09:37;;;;;;;4.55;3.53;;;;;;;-141.97;32.48;47148.16;5016552;28;20186;-89
2023/06/30 09:12:03;;;;;;;3.50;3.20;;;;;;;-141.97;31.56;47307.66;5004079;28;20541;-89
2023/06/30 09:14:33;;;;;;;5.55;4.93;;;;;;;-141.97;31.38;47438.34;5020821;28;20182;-90
2023/06/30 09:17:00;;;;;;;5.03;3.90;;;;;;;-141.97;31.39;47419.13;5019075;28;20214;-88
2023/06/30 09:19:26;;;;;;;5.07;4.00;;;;;;;-141.97;31.59;47219.25;5020856;28;20205;-89
2023/06/30 09:21:52;;;;;;;6.63;4.30;;;;;;;-141.97;31.37;47476.78;5025224;28;20173;-90
2023/06/30 09:24:18;;;;;;;4.65;4.25;;;;;;;-141.97;31.74;47401.84;5022597;28;20220;-89
2023/06/30 09:26:44;;;;;;;4.63;4.22;;;;;;;-141.97;31.80;47340.34;5020020;28;20176;-88
2023/06/30 09:29:10;;;;;;;5.32;4.50;;;;;;;-141.97;32.54;47542.16;5025587;28;20616;-88
2023/06/30 09:31:35;;;;;;;5.05;4.45;;;;;;;-141.97;31.84;47503.69;5024419;28;20171;-90
2023/06/30 09:34:12;;;;;;;4.53;4.03;;;;;;;-141.97;31.23;47301.91;5023794;28;20231;-89
2023/06/30 09:36:49;;;;;;;5.47;3.92;;;;;;;-141.97;30.62;47157.75;5025380;28;20182;-88
2023/06/30 09:39:15;;;;;;;4.93;3.40;;;;;;;-141.97;30.47;47469.09;5024996;28;20244;-89
2023/06/30 09:41:46;;;;;;;6.05;3.63;;;;;;;-141.97;30.54;47582.50;5034017;28;20174;-90
2023/06/30 09:44:13;;;;;;;3.78;3.30;;;;;;;-141.97;30.54;47399.91;5038562;28;20214;-90
2023/06/30 09:46:53;;;;;;;5.25;3.42;;;;;;;-141.97;30.21;47367.25;5034026;28;20190;-90
2023/06/30 09:49:32;;;;;;;4.47;3.42;;;;;;;-141.97;29.68;47355.72;4999876;28;20212;-90
2023/06/30 09:51:59;;;;;;;4.70;3.50;;;;;;;-141.97;30.59;47626.72;5017308;28;20168;-92
2023/06/30 09:54:25;;;;;;;2.90;2.70;;;;;;;-141.97;30.35;47324.97;5015519;28;20185;-89
2023/06/30 09:57:01;;;;;;;4.93;3.13;;;;;;;-141.97;29.70;47363.41;5016740;28;20209;-88
2023/06/30 09:59:27;;;;;;;3.75;3.17;;;;;;;-141.97;30.00;47284.59;5014800;28;20177;-86
2023/06/30 10:01:54;;;;;;;3.40;3.10;;;;;;;-141.97;29.40;47336.50;5016064;28;20627;-87
2023/06/30 10:04:19;;;;;;;4.60;3.30;;;;;;;-141.97;29.57;47242.31;5015836;28;20166;-88
2023/06/30 10:06:47;;;;;;;3.33;3.00;;;;;;;-141.97;29.67;47367.25;5017093;28;20149;-89
2023/06/30 10:09:15;;;;;;;6.60;3.10;;;;;;;-141.97;29.62;47096.25;5016232;28;20189;-89
2023/06/30 10:11:43;;;;;;;3.45;3.00;;;;;;;-141.97;29.76;47421.06;5015440;28;20585;-87
2023/06/30 10:14:10;;;;;;;3.50;2.95;;;;;;;-141.97;29.91;47447.97;5016347;28;20522;-87
2023/06/30 10:16:37;;;;;;;5.18;2.92;;;;;;;-141.97;30.17;47150.06;4998180;28;20208;-90
2023/06/30 10:19:05;;;;;;;4.60;3.03;;;;;;;-141.97;29.88;47361.47;5016128;28;20254;-88
2023/06/30 10:21:30;;;;;;;5.07;2.78;;;;;;;-141.97;29.35;47219.25;5021653;28;20173;-87
2023/06/30 10:23:57;;;;;;;3.15;2.75;;;;;;;-141.97;28.46;47588.28;5016068;28;20188;-88
2023/06/30 10:26:24;;;;;;;2.70;2.50;;;;;;;-141.97;28.78;47338.41;5014893;28;20177;-88
2023/06/30 10:28:50;;;;;;;4.70;2.80;;;;;;;-141.97;29.27;47328.81;5014768;28;20603;-88
2023/06/30 10:31:16;;;;;;;3.92;3.10;;;;;;;-141.97;29.68;47363.41;4998331;28;20176;-87
2023/06/30 10:33:41;;;;;;;3.40;3.10;;;;;;;-141.97;29.53;47230.78;4998184;28;20256;-87
2023/06/30 10:36:08;;;;;;;3.30;3.00;;;;;;;-141.97;29.86;47569.06;5015380;28;20189;-88
2023/06/30 10:38:37;;;;;;;4.40;3.22;;;;;;;-141.97;30.20;47301.91;5016294;28;20643;-86
2023/06/30 10:41:19;;;;;;;4.97;3.60;;;;;;;-141.97;30.35;47371.09;5015480;28;20159;-88
2023/06/30 10:44:11;;;;;;;5.97;3.40;;;;;;;-141.97;30.31;47357.63;5013953;28;20225;-87
2023/06/30 10:46:52;;;;;;;3.10;2.80;;;;;;;-141.97;30.25;47376.84;4939559;29;20684;-88
2023/06/30 10:49:23;;;;;;;3.08;2.88;;;;;;;-141.97;30.05;47211.56;4939227;29;20190;-89
2023/06/30 10:51:52;;;;;;;3.58;3.28;;;;;;;-141.97;30.34;47392.22;4939528;29;20200;-86
2023/06/30 10:54:28;;;;;;;3.35;3.05;;;;;;;-141.97;29.54;47119.31;4955056;29;20190;-86
2023/06/30 10:57:05;;;;;;;5.28;3.10;;;;;;;-141.97;29.67;47340.34;4939382;28;20231;-90
2023/06/30 10:59:41;;;;;;;6.28;3.30;;;;;;;-141.97;29.33;47578.66;4954908;29;20204;-89
2023/06/30 11:02:19;;;;;;;3.40;3.10;;;;;;;-141.97;29.06;47361.47;4954801;29;20172;-87
2023/06/30 11:04:46;;;;;;;4.88;3.10;;;;;;;-141.97;29.39;47338.41;4955094;29;20203;-87
2023/06/30 11:07:37;;;;;;;3.50;3.13;;;;;;;-141.97;29.53;47369.16;4954862;28;20557;-87